Time;durP1;ratioP1;P1;durP2;ratioP2;P2;SDS_P1;SDS_P2;PMS_P1;PMS_P2;Temp;Humidity;BMP_temperature;BMP_pressure;BME280_temperature;BME280_humidity;BME280_pressure;Samples;Min_cycle;Max_cycle;Signal;HPM_P1;HPM_P2
2022/11/29 00:01:01;;;;;;;162.68;19.10;;;;;;;0.04;100.00;99242.47;4469463;32;20438;-73
2022/11/29 00:03:28;;;;;;;83.95;16.52;;;;;;;-0.07;100.00;99250.59;4469429;32;20510;-73
2022/11/29 00:05:56;;;;;;;153.87;16.70;;;;;;;-0.03;100.00;99242.69;4469481;32;20156;-73
2022/11/29 00:08:23;;;;;;;150.23;17.48;;;;;;;-0.10;100.00;99235.25;4474638;32;20108;-73
2022/11/29 00:10:50;;;;;;;107.95;15.15;;;;;;;-0.17;100.00;99224.34;4485101;31;20221;-73
2022/11/29 00:13:17;;;;;;;117.18;15.70;;;;;;;-0.11;100.00;99236.97;4485407;31;20087;-73
2022/11/29 00:15:44;;;;;;;152.75;19.98;;;;;;;-0.08;100.00;99228.31;4485153;31;20432;-73
2022/11/29 00:18:12;;;;;;;227.90;22.80;;;;;;;-0.14;100.00;99234.53;4485108;31;20198;-73
2022/11/29 00:20:39;;;;;;;211.45;20.52;;;;;;;-0.25;100.00;99222.06;4478562;31;20392;-73
2022/11/29 00:23:06;;;;;;;222.93;21.10;;;;;;;-0.15;100.00;99216.56;4469210;32;20112;-73
2022/11/29 00:25:33;;;;;;;120.05;15.80;;;;;;;-0.29;100.00;99211.94;4469455;32;20419;-73
2022/11/29 00:28:00;;;;;;;158.32;17.92;;;;;;;-0.19;100.00;99208.94;4469375;32;20559;-73
2022/11/29 00:30:27;;;;;;;240.48;20.70;;;;;;;-0.09;100.00;99206.88;4469194;32;20159;-73
2022/11/29 00:32:55;;;;;;;126.87;16.50;;;;;;;-0.21;100.00;99213.31;4469280;32;20156;-73
2022/11/29 00:35:22;;;;;;;192.62;18.87;;;;;;;-0.16;100.00;99209.75;4469511;32;20127;-73
2022/11/29 00:37:49;;;;;;;166.68;18.37;;;;;;;-0.18;100.00;99212.38;4469078;32;20449;-73
2022/11/29 00:40:16;;;;;;;158.63;18.70;;;;;;;-0.27;100.00;99213.56;4469470;32;20180;-73
2022/11/29 00:42:43;;;;;;;133.50;16.87;;;;;;;-0.25;100.00;99223.81;4469018;32;20115;-73
2022/11/29 00:45:11;;;;;;;141.20;15.52;;;;;;;-0.31;100.00;99221.47;4469131;32;20100;-73
2022/11/29 00:47:38;;;;;;;142.55;17.17;;;;;;;-0.22;100.00;99223.69;4468966;32;20096;-73
2022/11/29 00:50:05;;;;;;;126.12;15.27;;;;;;;-0.30;100.00;99212.81;4469018;32;20133;-73
2022/11/29 00:52:32;;;;;;;154.85;16.70;;;;;;;-0.36;100.00;99206.19;4468853;32;20167;-73
2022/11/29 00:55:00;;;;;;;164.60;18.83;;;;;;;-0.38;100.00;99205.38;4469140;32;20117;-73
2022/11/29 00:57:27;;;;;;;172.90;17.48;;;;;;;-0.22;100.00;99210.81;4468904;32;20111;-73
2022/11/29 00:59:54;;;;;;;124.60;16.52;;;;;;;-0.17;100.00;99211.47;4468601;32;20168;-73
2022/11/29 01:02:21;;;;;;;117.13;15.75;;;;;;;-0.23;100.00;99206.56;4468605;32;20530;-73
2022/11/29 01:04:48;;;;;;;126.55;17.23;;;;;;;-0.31;100.00;99211.16;4468749;32;20084;-73
2022/11/29 01:07:15;;;;;;;133.55;16.17;;;;;;;-0.28;100.00;99209.31;4468685;32;20558;-73
2022/11/29 01:09:43;;;;;;;93.32;15.60;;;;;;;-0.17;100.00;99206.31;4482397;32;20677;-73
2022/11/29 01:12:10;;;;;;;120.72;15.05;;;;;;;-0.13;100.00;99207.06;4486048;31;20100;-73
2022/11/29 01:14:37;;;;;;;124.15;16.87;;;;;;;-0.10;100.00;99205.19;4486304;31;20490;-73
2022/11/29 01:17:04;;;;;;;173.57;18.83;;;;;;;-0.08;100.00;99203.38;4486455;31;20424;-73
2022/11/29 01:19:31;;;;;;;213.62;18.27;;;;;;;-0.12;100.00;99201.84;4486489;31;20452;-73
2022/11/29 01:21:58;;;;;;;172.73;19.75;;;;;;;-0.27;100.00;99204.97;4486361;31;20130;-73
2022/11/29 01:24:25;;;;;;;134.77;16.10;;;;;;;-0.19;100.00;99205.53;4486196;32;20464;-73
2022/11/29 01:26:52;;;;;;;162.45;18.67;;;;;;;-0.12;100.00;99203.56;4486107;32;20076;-73
2022/11/29 01:29:19;;;;;;;182.80;18.23;;;;;;;-0.17;100.00;99202.91;4486050;32;20118;-73
2022/11/29 01:31:47;;;;;;;165.70;16.20;;;;;;;-0.07;100.00;99204.25;4486312;32;20123;-73
2022/11/29 01:34:14;;;;;;;141.27;17.05;;;;;;;-0.01;100.00;99204.00;4486115;32;20088;-73
2022/11/29 01:36:41;;;;;;;297.80;24.05;;;;;;;-0.04;100.00;99199.78;4486171;32;20520;-73
2022/11/29 01:39:09;;;;;;;135.98;16.50;;;;;;;-0.16;100.00;99194.31;4486473;32;20112;-73
2022/11/29 01:41:36;;;;;;;150.15;15.63;;;;;;;-0.12;100.00;99194.13;4486246;31;20624;-73
2022/11/29 01:44:12;;;;;;;174.87;19.05;;;;;;;-0.02;100.00;99189.44;4486267;31;20097;-73
2022/11/29 01:46:42;;;;;;;163.10;15.98;;;;;;;-0.07;100.00;99194.75;4486203;31;20148;-73
2022/11/29 01:49:11;;;;;;;154.68;15.75;;;;;;;-0.01;100.00;99193.69;4486187;31;20161;-73
2022/11/29 01:51:41;;;;;;;120.78;14.20;;;;;;;-0.15;100.00;99190.81;4486069;31;20646;-73
2022/11/29 01:54:09;;;;;;;191.52;19.85;;;;;;;-0.11;100.00;99197.53;4484809;32;20148;-73
2022/11/29 01:56:37;;;;;;;125.40;15.55;;;;;;;-0.18;100.00;99189.22;4486170;31;20088;-73
2022/11/29 01:59:07;;;;;;;212.93;18.37;;;;;;;-0.14;100.00;99192.50;4485748;31;20513;-73
2022/11/29 02:01:35;;;;;;;179.70;16.37;;;;;;;-0.14;100.00;99187.34;4484946;32;20401;-73
2022/11/29 02:04:03;;;;;;;182.00;16.70;;;;;;;-0.08;100.00;99192.25;4484460;32;20104;-73
2022/11/29 02:06:32;;;;;;;140.25;14.45;;;;;;;-0.12;100.00;99195.84;4486055;31;20101;-73
2022/11/29 02:08:59;;;;;;;149.77;16.20;;;;;;;-0.20;100.00;99198.72;4476904;31;20167;-73
2022/11/29 02:11:46;;;;;;;94.53;14.68;;;;;;;-0.05;100.00;99198.09;4470307;32;20108;-73
2022/11/29 02:14:27;;;;;;;132.63;14.80;;;;;;;-0.13;100.00;99200.16;4468846;32;20514;-73
2022/11/29 02:17:09;;;;;;;167.27;16.33;;;;;;;-0.04;100.00;99204.12;4469116;32;20727;-73
2022/11/29 02:19:58;;;;;;;113.57;14.38;;;;;;;-0.01;100.00;99204.00;4470360;32;20472;-73
2022/11/29 02:22:37;;;;;;;103.80;14.07;;;;;;;0.01;100.00;99209.91;4469585;32;20088;-73
2022/11/29 02:25:34;;;;;;;212.07;18.52;;;;;;;0.07;100.00;99203.69;4481691;32;20159;-73
2022/11/29 02:28:26;;;;;;;207.95;19.12;;;;;;;0.01;100.00;99212.50;4469013;32;20149;-73
2022/11/29 02:31:16;;;;;;;157.60;14.60;;;;;;;-0.01;100.00;99206.56;4470188;32;20150;-73
2022/11/29 02:34:03;;;;;;;150.15;18.02;;;;;;;-0.05;100.00;99202.44;4469037;32;20426;-73
2022/11/29 02:36:44;;;;;;;181.12;15.20;;;;;;;-0.11;100.00;99212.97;4469109;32;20089;-73
2022/11/29 02:39:20;;;;;;;111.62;14.00;;;;;;;-0.14;100.00;99210.53;4470107;32;20093;-73
2022/11/29 02:42:03;;;;;;;171.40;16.42;;;;;;;-0.03;100.00;99209.22;4470342;32;20221;-73
2022/11/29 02:44:57;;;;;;;182.50;14.20;;;;;;;-0.04;100.00;99211.84;4470102;32;20092;-73
2022/11/29 02:48:02;;;;;;;225.20;20.17;;;;;;;-0.05;100.00;99202.44;4470492;32;20097;-73
2022/11/29 02:50:49;;;;;;;151.63;15.90;;;;;;;-0.29;100.00;99209.34;4470150;32;20084;-73
2022/11/29 02:53:22;;;;;;;162.25;15.05;;;;;;;-0.15;100.00;99213.97;4481540;32;20108;-73
2022/11/29 02:55:56;;;;;;;133.25;14.10;;;;;;;-0.06;100.00;99216.19;4470092;32;20106;-73
2022/11/29 02:59:00;;;;;;;106.97;14.77;;;;;;;-0.13;100.00;99209.63;4470273;32;20533;-73
2022/11/29 03:02:11;;;;;;;171.80;16.77;;;;;;;-0.07;100.00;99212.78;4468941;32;20081;-73
2022/11/29 03:04:54;;;;;;;164.73;15.68;;;;;;;-0.25;100.00;99208.34;4393133;32;20173;-73
2022/11/29 03:07:42;;;;;;;121.43;13.60;;;;;;;-0.22;100.00;99203.09;4405916;32;20184;-73
2022/11/29 03:10:21;;;;;;;83.95;10.38;;;;;;;-0.21;100.00;99202.19;4420975;32;20121;-73
2022/11/29 03:12:50;;;;;;;88.95;14.52;;;;;;;-0.07;100.00;99199.91;4421065;32;20149;-73
2022/11/29 03:15:29;;;;;;;85.40;14.45;;;;;;;-0.13;100.00;99212.19;4420936;32;20209;-73
2022/11/29 03:18:01;;;;;;;70.32;12.15;;;;;;;-0.32;100.00;99212.06;4408401;32;20173;-73
2022/11/29 03:20:28;;;;;;;66.70;14.35;;;;;;;-0.33;100.00;99218.94;4420908;32;20188;-73
2022/11/29 03:22:58;;;;;;;66.60;12.15;;;;;;;-0.36;100.00;99212.16;4420838;32;20533;-73
2022/11/29 03:25:38;;;;;;;61.03;12.43;;;;;;;-0.29;100.00;99217.09;4420701;32;20631;-73
2022/11/29 03:28:20;;;;;;;62.78;11.52;;;;;;;-0.20;100.00;99209.88;4408379;32;20189;-73
2022/11/29 03:31:03;;;;;;;52.50;10.52;;;;;;;-0.09;100.00;99211.16;4408125;32;20101;-73
2022/11/29 03:33:48;;;;;;;42.67;10.57;;;;;;;-0.13;100.00;99207.87;4419845;32;20148;-73
2022/11/29 03:36:35;;;;;;;58.35;11.77;;;;;;;-0.32;100.00;99220.59;4408497;32;20116;-73
2022/11/29 03:39:06;;;;;;;83.43;13.23;;;;;;;-0.23;100.00;99219.44;4408525;32;20195;-73
2022/11/29 03:41:43;;;;;;;75.85;12.25;;;;;;;-0.16;100.00;99218.31;4460954;32;20114;-73
2022/11/29 03:44:17;;;;;;;45.60;9.48;;;;;;;-0.21;100.00;99221.06;4484023;32;20128;-73
2022/11/29 03:47:03;;;;;;;49.53;11.57;;;;;;;-0.24;100.00;99218.59;4485235;31;20152;-73
2022/11/29 03:49:37;;;;;;;63.30;10.15;;;;;;;-0.29;100.00;99220.47;4485413;31;20115;-73
2022/11/29 03:52:18;;;;;;;60.92;10.70;;;;;;;-0.31;100.00;99230.00;4485537;31;20561;-73
2022/11/29 03:55:03;;;;;;;99.65;13.88;;;;;;;-0.41;100.00;99231.25;4483875;32;20197;-73
2022/11/29 03:57:54;;;;;;;65.40;12.60;;;;;;;-0.36;100.00;99232.75;4485328;32;20140;-73
2022/11/29 04:00:22;;;;;;;81.50;14.20;;;;;;;-0.24;100.00;99226.31;4484976;32;20601;-73
2022/11/29 04:03:29;;;;;;;84.90;13.52;;;;;;;-0.23;100.00;99224.56;4485125;31;20488;-72
2022/11/29 04:06:18;;;;;;;90.90;12.32;;;;;;;-0.10;100.00;99235.25;4473565;32;20094;-73
2022/11/29 04:08:48;;;;;;;86.70;12.73;;;;;;;-0.12;100.00;99232.75;4476602;32;20117;-73
2022/11/29 04:11:53;;;;;;;60.97;12.75;;;;;;;-0.20;100.00;99234.75;4468326;32;20205;-73
2022/11/29 04:14:29;;;;;;;;;;;;;;;-0.33;100.00;99233.53;4469560;32;20450;-73
2022/11/29 04:17:11;;;;;;;70.97;11.38;;;;;;;-0.29;100.00;99237.69;4468332;32;20055;-73
2022/11/29 04:20:19;;;;;;;105.57;12.52;;;;;;;-0.21;100.00;99233.09;4469371;32;20194;-73
2022/11/29 04:23:06;;;;;;;60.05;12.35;;;;;;;-0.38;100.00;99238.84;4435600;32;20560;-73
2022/11/29 04:26:07;;;;;;;55.78;12.65;;;;;;;-0.45;100.00;99240.81;4435858;32;20101;-73
2022/11/29 04:29:00;;;;;;;101.85;11.90;;;;;;;-0.50;100.00;99231.59;4435758;32;20151;-73
2022/11/29 04:31:54;;;;;;;93.20;12.15;;;;;;;-0.69;100.00;99239.97;4436271;32;20121;-72
2022/11/29 04:34:54;;;;;;;79.00;11.50;;;;;;;-0.58;100.00;99240.41;4435564;32;20105;-73
2022/11/29 04:37:36;;;;;;;54.60;10.90;;;;;;;-0.56;100.00;99238.63;4389791;32;20509;-73
2022/11/29 04:40:17;;;;;;;57.45;11.23;;;;;;;-0.34;100.00;99242.16;4377536;32;20086;-73
2022/11/29 04:43:13;;;;;;;67.90;11.75;;;;;;;-0.37;100.00;99243.12;4389819;32;20159;-73
2022/11/29 04:45:59;;;;;;;53.03;12.13;;;;;;;-0.40;100.00;99245.81;4389430;32;20140;-73
2022/11/29 04:48:26;;;;;;;53.38;13.23;;;;;;;-0.49;100.00;99246.13;4389843;32;20211;-73
2022/11/29 04:51:14;;;;;;;73.07;12.55;;;;;;;-0.42;100.00;99253.56;4389827;32;20481;-73
2022/11/29 04:54:25;;;;;;;44.38;13.07;;;;;;;-0.42;100.00;99248.44;4389867;32;20133;-73
2022/11/29 04:56:59;;;;;;;54.00;12.98;;;;;;;-0.22;100.00;99252.00;4344682;33;20125;-73
2022/11/29 04:59:27;;;;;;;159.07;19.17;;;;;;;-0.19;100.00;99257.88;4351153;32;20125;-73
2022/11/29 05:02:14;;;;;;;54.90;13.90;;;;;;;-0.26;100.00;99268.47;4374785;32;20287;-73
2022/11/29 05:04:46;;;;;;;53.67;11.95;;;;;;;-0.17;100.00;99262.97;4374502;32;20558;-73
2022/11/29 05:07:40;;;;;;;57.40;14.35;;;;;;;-0.10;100.00;99263.59;4362201;32;20608;-73
2022/11/29 05:10:41;;;;;;;60.10;12.27;;;;;;;-0.17;100.00;99267.28;4359501;32;20106;-73
2022/11/29 05:13:27;;;;;;;45.47;12.13;;;;;;;-0.31;100.00;99267.78;4363275;32;20230;-72
2022/11/29 05:16:31;;;;;;;44.92;12.15;;;;;;;-0.17;100.00;99270.69;4422178;32;20553;-73
2022/11/29 05:19:11;;;;;;;45.45;11.20;;;;;;;-0.21;100.00;99271.72;4435051;32;20093;-73
2022/11/29 05:22:03;;;;;;;53.45;11.82;;;;;;;-0.24;100.00;99267.50;4434919;32;20171;-73
2022/11/29 05:24:54;;;;;;;65.70;13.45;;;;;;;-0.18;100.00;99271.59;4435183;32;20601;-73
2022/11/29 05:27:21;;;;;;;50.92;12.25;;;;;;;-0.19;100.00;99278.47;4422663;32;20113;-72
2022/11/29 05:29:53;;;;;;;61.05;13.55;;;;;;;-0.13;100.00;99276.59;4435212;32;20132;-72
2022/11/29 05:32:20;;;;;;;126.30;15.07;;;;;;;-0.07;100.00;99278.94;4484221;31;20152;-73
2022/11/29 05:35:07;;;;;;;91.12;12.80;;;;;;;-0.19;100.00;99278.47;4483820;31;20176;-73
2022/11/29 05:37:48;;;;;;;74.70;13.80;;;;;;;-0.22;100.00;99277.75;4484016;31;20092;-73
2022/11/29 05:40:35;;;;;;;44.15;11.88;;;;;;;-0.24;100.00;99272.66;4482802;32;20167;-72
2022/11/29 05:43:30;;;;;;;64.20;11.77;;;;;;;-0.24;100.00;99274.41;4484173;31;20460;-72
2022/11/29 05:46:11;;;;;;;60.38;12.57;;;;;;;-0.12;100.00;99278.25;4483362;31;20088;-73
2022/11/29 05:48:50;;;;;;;70.62;14.10;;;;;;;0.01;100.00;99278.63;4482600;32;20104;-73
2022/11/29 05:51:30;;;;;;;61.65;13.32;;;;;;;0.25;100.00;99282.00;4482225;31;20958;-72
2022/11/29 05:54:15;;;;;;;75.70;14.57;;;;;;;0.06;100.00;99276.72;4466877;32;20077;-72
2022/11/29 05:57:00;;;;;;;41.67;13.07;;;;;;;0.04;100.00;99279.34;4468289;32;20103;-72
2022/11/29 05:59:28;;;;;;;30.42;9.85;;;;;;;0.16;100.00;99275.47;4477085;32;20108;-72
2022/11/29 06:02:20;;;;;;;51.15;13.43;;;;;;;0.14;100.00;99285.84;4484422;32;20115;-72
2022/11/29 06:04:59;;;;;;;43.83;11.20;;;;;;;0.50;100.00;99289.59;4470550;32;20101;-72
2022/11/29 06:07:33;;;;;;;48.75;12.65;;;;;;;0.66;100.00;99292.41;4478602;32;20088;-73
2022/11/29 06:10:16;;;;;;;97.25;14.98;;;;;;;0.25;100.00;99288.00;4485886;31;20521;-72
2022/11/29 06:13:09;;;;;;;127.93;15.57;;;;;;;0.31;100.00;99286.94;4469401;32;20093;-73
2022/11/29 06:15:55;;;;;;;36.88;9.75;;;;;;;-0.06;100.00;99289.16;4468849;32;20109;-72
2022/11/29 06:18:43;;;;;;;124.85;15.50;;;;;;;0.38;100.00;99297.81;4471960;32;20085;-72
2022/11/29 06:21:16;;;;;;;52.40;11.32;;;;;;;-0.01;100.00;99289.81;4468479;32;20096;-73
2022/11/29 06:24:33;;;;;;;126.93;16.08;;;;;;;0.21;100.00;99301.06;4483781;32;20112;-74
2022/11/29 06:27:09;;;;;;;67.22;14.45;;;;;;;0.03;100.00;99308.59;4461284;32;20225;-73
2022/11/29 06:30:08;;;;;;;197.57;17.60;;;;;;;-0.23;100.00;99307.81;4483262;32;20159;-73
2022/11/29 06:32:56;;;;;;;123.60;12.90;;;;;;;-0.42;100.00;99317.94;4480723;32;20143;-74
2022/11/29 06:35:34;;;;;;;58.22;11.02;;;;;;;-0.54;100.00;99316.63;4484497;31;20104;-74
2022/11/29 06:38:08;;;;;;;109.85;13.95;;;;;;;-0.36;100.00;99322.03;4484369;32;20555;-74
2022/11/29 06:40:36;;;;;;;93.90;12.77;;;;;;;-0.33;100.00;99321.91;4483287;32;20104;-74
2022/11/29 06:43:03;;;;;;;78.07;12.77;;;;;;;-0.44;100.00;99326.59;4485083;31;20108;-74
2022/11/29 06:45:31;;;;;;;63.05;14.45;;;;;;;-0.51;100.00;99325.97;4485729;31;20092;-74
2022/11/29 06:48:03;;;;;;;42.28;9.48;;;;;;;-0.37;100.00;99326.31;4485226;31;20111;-73
2022/11/29 06:50:36;;;;;;;73.97;11.32;;;;;;;-0.23;100.00;99325.84;4484488;32;20163;-74
2022/11/29 06:53:29;;;;;;;61.75;12.15;;;;;;;-0.30;100.00;99323.53;4479797;31;20144;-74
2022/11/29 06:56:33;;;;;;;79.20;12.30;;;;;;;-0.21;100.00;99326.62;4466295;32;20137;-75
2022/11/29 06:59:23;;;;;;;76.10;12.35;;;;;;;-0.19;100.00;99335.12;4451382;32;20152;-74
2022/11/29 07:01:54;;;;;;;41.40;11.55;;;;;;;-0.12;100.00;99329.75;4439144;32;20112;-75
2022/11/29 07:04:39;;;;;;;67.20;14.23;;;;;;;-0.19;100.00;99329.13;4422210;32;20803;-74
2022/11/29 07:07:19;;;;;;;118.05;13.93;;;;;;;-0.22;100.00;99330.06;4422578;32;20625;-73
2022/11/29 07:09:48;;;;;;;87.00;12.25;;;;;;;-0.31;100.00;99339.88;4419812;32;20567;-73
2022/11/29 07:12:16;;;;;;;111.80;13.38;;;;;;;-0.25;100.00;99332.75;4408957;32;20518;-74
2022/11/29 07:14:44;;;;;;;99.97;12.75;;;;;;;-0.28;100.00;99334.62;4419831;32;20114;-74
2022/11/29 07:17:38;;;;;;;122.47;15.70;;;;;;;-0.29;100.00;99336.34;4420088;32;20113;-74
2022/11/29 07:20:08;;;;;;;100.62;15.30;;;;;;;-0.32;100.00;99343.34;4407194;32;20260;-75
2022/11/29 07:23:03;;;;;;;91.45;13.93;;;;;;;-0.41;100.00;99341.91;4418637;32;20147;-75
2022/11/29 07:25:49;;;;;;;57.22;11.93;;;;;;;-0.17;100.00;99342.78;4419306;32;20209;-74
2022/11/29 07:28:19;;;;;;;82.80;13.40;;;;;;;-0.08;100.00;99342.44;4420579;32;20227;-75
2022/11/29 07:30:56;;;;;;;60.95;13.18;;;;;;;-0.10;100.00;99338.28;4420295;32;20165;-74
2022/11/29 07:34:07;;;;;;;139.68;15.38;;;;;;;0.09;100.00;99336.69;4420352;32;20081;-74
2022/11/29 07:37:14;;;;;;;113.32;14.25;;;;;;;-0.07;100.00;99338.16;4400049;32;20162;-74
2022/11/29 07:39:53;;;;;;;75.85;14.68;;;;;;;-0.15;100.00;99335.00;4404614;32;20165;-75
2022/11/29 07:42:48;;;;;;;77.05;15.30;;;;;;;-0.02;100.00;99343.97;4392100;32;20182;-74
2022/11/29 07:45:36;;;;;;;166.23;17.62;;;;;;;0.02;100.00;99352.44;4400288;32;20121;-74
2022/11/29 07:48:04;;;;;;;60.22;16.48;;;;;;;-0.02;100.00;99356.84;4378042;32;20121;-77
2022/11/29 07:50:31;;;;;;;55.12;15.10;;;;;;;0.06;100.00;99349.69;4415513;32;20645;-77
2022/11/29 07:52:58;;;;;;;115.60;18.30;;;;;;;0.24;100.00;99353.28;4402014;32;20098;-75
2022/11/29 07:55:28;;;;;;;135.43;19.95;;;;;;;0.19;100.00;99349.25;4404943;32;20288;-77
2022/11/29 07:57:55;;;;;;;52.15;15.07;;;;;;;0.19;100.00;99351.81;4398199;32;208812;-76
2022/11/29 08:00:22;;;;;;;100.35;15.75;;;;;;;0.25;100.00;99349.00;4402263;32;20175;-75
2022/11/29 08:02:50;;;;;;;95.28;16.55;;;;;;;0.42;100.00;99341.47;4406364;32;20110;-75
2022/11/29 08:05:19;;;;;;;109.70;16.75;;;;;;;0.30;100.00;99341.94;4417621;32;20539;-73
2022/11/29 08:07:46;;;;;;;122.90;15.35;;;;;;;0.13;100.00;99356.28;4418092;32;20145;-74
2022/11/29 08:10:15;;;;;;;95.43;16.12;;;;;;;0.09;100.00;99354.72;4419680;32;20129;-73
2022/11/29 08:12:44;;;;;;;78.10;17.75;;;;;;;0.22;100.00;99354.28;4441580;32;20104;-73
2022/11/29 08:15:11;;;;;;;45.90;13.73;;;;;;;0.37;100.00;99348.53;4485016;31;20092;-73
2022/11/29 08:17:39;;;;;;;73.45;16.73;;;;;;;0.33;100.00;99345.25;4479961;32;20134;-73
2022/11/29 08:20:08;;;;;;;59.75;15.85;;;;;;;0.35;100.00;99345.19;4481327;31;20183;-73
2022/11/29 08:22:35;;;;;;;38.60;13.93;;;;;;;0.24;100.00;99352.47;4478922;32;20144;-73
2022/11/29 08:25:04;;;;;;;68.57;16.15;;;;;;;0.47;100.00;99344.72;4483211;32;20441;-74
2022/11/29 08:27:31;;;;;;;44.08;14.70;;;;;;;0.60;100.00;99341.66;4484512;31;20108;-73
2022/11/29 08:29:58;;;;;;;52.90;17.12;;;;;;;0.66;100.00;99338.84;4476097;31;20381;-72
2022/11/29 08:32:26;;;;;;;46.67;16.80;;;;;;;0.79;100.00;99340.03;4475332;31;20084;-74
2022/11/29 08:34:53;;;;;;;58.25;16.52;;;;;;;0.73;100.00;99342.84;4478942;32;20601;-74
2022/11/29 08:37:20;;;;;;;56.40;16.08;;;;;;;0.53;100.00;99338.50;4483468;31;20123;-74
2022/11/29 08:39:47;;;;;;;43.75;16.17;;;;;;;0.59;100.00;99347.69;4483696;32;20100;-75
2022/11/29 08:42:14;;;;;;;54.17;16.90;;;;;;;0.60;100.00;99349.38;4469088;32;20089;-75
2022/11/29 08:44:41;;;;;;;35.13;12.07;;;;;;;0.48;100.00;99348.94;4477216;32;20101;-74
2022/11/29 08:50:01;;;;;;;39.22;14.18;;;;;;;0.60;100.00;99345.06;4483372;31;20092;-75
2022/11/29 08:55:21;;;;;;;44.25;16.15;;;;;;;0.45;100.00;99348.25;4484049;31;20076;-76
2022/11/29 08:57:50;;;;;;;46.83;16.55;;;;;;;0.49;100.00;99342.91;4484320;31;20152;-74
2022/11/29 09:00:20;;;;;;;38.30;15.40;;;;;;;0.48;100.00;99340.38;4477580;31;20089;-73
2022/11/29 09:02:47;;;;;;;47.90;17.50;;;;;;;0.49;100.00;99339.50;4479434;32;20701;-74
2022/11/29 09:05:14;;;;;;;40.28;15.75;;;;;;;0.44;100.00;99338.81;4483578;31;20136;-74
2022/11/29 09:07:42;;;;;;;48.47;16.55;;;;;;;0.60;100.00;99349.38;4482886;32;20448;-74
2022/11/29 09:10:10;;;;;;;48.90;17.15;;;;;;;0.59;100.00;99342.53;4483384;32;20509;-73
2022/11/29 09:12:38;;;;;;;55.97;16.20;;;;;;;0.83;100.00;99343.31;4482529;31;20136;-73
2022/11/29 09:15:07;;;;;;;39.53;14.30;;;;;;;0.72;100.00;99338.59;4483472;31;20100;-72
2022/11/29 09:17:35;;;;;;;40.12;14.77;;;;;;;0.79;100.00;99340.03;4482577;31;20493;-74
2022/11/29 09:20:03;;;;;;;42.78;16.08;;;;;;;0.77;100.00;99336.66;4481450;31;20135;-74
2022/11/29 09:22:30;;;;;;;44.53;16.37;;;;;;;0.74;100.00;99341.09;4482960;32;20171;-74
2022/11/29 09:24:57;;;;;;;44.83;14.82;;;;;;;0.76;100.00;99340.16;4483067;31;20118;-73
2022/11/29 09:27:24;;;;;;;44.13;17.33;;;;;;;0.89;100.00;99335.31;4483945;32;20100;-74
2022/11/29 09:29:51;;;;;;;48.65;16.60;;;;;;;1.05;100.00;99336.38;4482573;31;20124;-75
2022/11/29 09:32:18;;;;;;;43.08;16.05;;;;;;;1.16;100.00;99338.50;4484121;31;20104;-75
2022/11/29 09:34:46;;;;;;;44.88;16.35;;;;;;;1.34;100.00;99336.09;4484856;32;20472;-74
2022/11/29 09:37:13;;;;;;;46.42;16.50;;;;;;;1.35;100.00;99338.59;4483601;31;20100;-75
2022/11/29 09:39:40;;;;;;;44.72;17.37;;;;;;;1.57;100.00;99335.91;4485467;32;20175;-75
2022/11/29 09:42:18;;;;;;;44.60;17.33;;;;;;;1.43;100.00;99340.84;4485437;32;20121;-75
2022/11/29 09:44:58;;;;;;;46.00;16.55;;;;;;;1.51;100.00;99333.59;4485677;31;20480;-76
2022/11/29 09:47:56;;;;;;;43.30;16.92;;;;;;;1.32;100.00;99328.41;4484630;31;20179;-76
2022/11/29 09:50:30;;;;;;;40.83;16.12;;;;;;;1.42;100.00;99331.41;4474292;32;20104;-76
2022/11/29 09:53:37;;;;;;;47.92;17.02;;;;;;;1.31;100.00;99336.22;4474846;32;20139;-76
2022/11/29 09:56:27;;;;;;;39.90;14.95;;;;;;;1.56;100.00;99321.34;4490462;31;20092;-76
2022/11/29 09:59:00;;;;;;;34.78;14.95;;;;;;;1.89;100.00;99315.63;4468713;32;20175;-76
2022/11/29 10:01:30;;;;;;;38.88;16.33;;;;;;;1.95;100.00;99320.50;4480960;32;20142;-76
2022/11/29 10:04:04;;;;;;;42.10;14.87;;;;;;;2.12;100.00;99319.72;4485095;31;20114;-76
2022/11/29 10:06:44;;;;;;;37.40;14.48;;;;;;;2.16;100.00;99320.41;4485582;31;20096;-76
2022/11/29 10:09:29;;;;;;;44.80;15.10;;;;;;;1.94;100.00;99313.66;4479799;32;20155;-76
2022/11/29 10:12:11;;;;;;;37.80;14.15;;;;;;;1.81;100.00;99303.94;4485450;32;20083;-76
2022/11/29 10:14:50;;;;;;;43.30;15.27;;;;;;;2.23;100.00;99308.06;4484353;32;20159;-76
2022/11/29 10:17:38;;;;;;;37.13;14.07;;;;;;;2.46;100.00;99304.41;4483572;31;20092;-76
2022/11/29 10:20:12;;;;;;;37.78;14.45;;;;;;;2.57;100.00;99299.53;4473485;32;20113;-75
2022/11/29 10:22:44;;;;;;;39.45;15.50;;;;;;;2.22;100.00;99298.63;4484578;31;20096;-75
2022/11/29 10:25:20;;;;;;;33.03;13.50;;;;;;;2.17;100.00;99298.84;4483778;31;20084;-75
2022/11/29 10:27:47;;;;;;;38.83;15.00;;;;;;;2.24;100.00;99296.78;4479502;32;20089;-75
2022/11/29 10:30:15;;;;;;;41.78;16.12;;;;;;;2.11;100.00;99299.13;4481586;32;20200;-75
2022/11/29 10:32:44;;;;;;;40.88;14.35;;;;;;;2.11;100.00;99296.53;4484782;32;20108;-75
2022/11/29 10:35:14;;;;;;;37.92;15.18;;;;;;;2.18;100.00;99297.94;4484965;31;20114;-75
2022/11/29 10:37:42;;;;;;;44.67;15.82;;;;;;;2.03;100.00;99311.53;4483734;31;20132;-75
2022/11/29 10:40:33;;;;;;;44.38;15.82;;;;;;;1.71;100.00;99304.34;4483770;31;20104;-74
2022/11/29 10:43:00;;;;;;;45.65;18.52;;;;;;;1.64;100.00;99308.09;4485865;31;20157;-74
2022/11/29 10:45:33;;;;;;;48.03;18.25;;;;;;;1.71;100.00;99306.94;4485593;31;20585;-76
2022/11/29 10:48:17;;;;;;;43.20;17.35;;;;;;;1.78;100.00;99304.91;4470111;32;20759;-76
2022/11/29 10:50:47;;;;;;;43.75;15.65;;;;;;;1.97;100.00;99309.25;4482850;32;20104;-73
2022/11/29 10:53:18;;;;;;;46.55;18.05;;;;;;;2.29;100.00;99311.19;4484100;31;20104;-75
2022/11/29 10:55:52;;;;;;;41.05;16.67;;;;;;;2.40;100.00;99305.53;4484191;32;20147;-75
2022/11/29 10:58:24;;;;;;;41.25;17.15;;;;;;;2.36;100.00;99300.56;4485712;31;20130;-74
2022/11/29 11:01:05;;;;;;;45.67;17.70;;;;;;;2.38;100.00;99299.59;4484560;31;20091;-74
2022/11/29 11:03:40;;;;;;;45.08;17.00;;;;;;;2.47;100.00;99301.75;4480451;32;20116;-73
2022/11/29 11:06:16;;;;;;;39.17;16.35;;;;;;;2.50;100.00;99300.75;4480676;32;20152;-74
2022/11/29 11:08:51;;;;;;;43.78;16.23;;;;;;;2.45;100.00;99297.53;4484326;32;20163;-73
2022/11/29 11:11:24;;;;;;;41.45;17.12;;;;;;;2.33;100.00;99300.72;4478497;32;20088;-73
2022/11/29 11:14:06;;;;;;;40.17;16.87;;;;;;;2.38;100.00;99296.19;4483424;32;20108;-73
2022/11/29 11:16:33;;;;;;;38.33;14.73;;;;;;;2.35;100.00;99302.31;4482704;32;20112;-73
2022/11/29 11:19:28;;;;;;;39.47;17.15;;;;;;;2.41;100.00;99296.03;4483915;31;20076;-74
2022/11/29 11:21:57;;;;;;;41.75;15.15;;;;;;;2.30;100.00;99289.63;4480882;31;20152;-74
2022/11/29 11:24:45;;;;;;;41.00;15.75;;;;;;;2.58;100.00;99292.63;4482358;32;20228;-76
2022/11/29 11:27:12;;;;;;;44.58;16.40;;;;;;;2.40;100.00;99286.59;4483625;31;20092;-74
2022/11/29 11:29:41;;;;;;;43.30;16.08;;;;;;;2.30;100.00;99297.38;4483593;31;20468;-74
2022/11/29 11:32:17;;;;;;;40.58;16.48;;;;;;;2.13;100.00;99289.53;4474281;32;20127;-74
2022/11/29 11:34:59;;;;;;;36.35;14.95;;;;;;;1.95;100.00;99292.09;4479427;32;20464;-74
2022/11/29 11:37:30;;;;;;;33.30;14.73;;;;;;;2.11;100.00;99297.38;4478218;32;20088;-73
2022/11/29 11:40:19;;;;;;;35.67;15.40;;;;;;;2.05;100.00;99291.66;4478913;32;20119;-75
2022/11/29 11:42:46;;;;;;;34.45;15.32;;;;;;;2.25;100.00;99301.91;4435100;32;20110;-74
2022/11/29 11:45:13;;;;;;;36.75;14.35;;;;;;;2.53;100.00;99299.75;4441599;32;20206;-74
2022/11/29 11:47:52;;;;;;;39.88;15.77;;;;;;;2.73;100.00;99291.06;4437035;32;20105;-73
2022/11/29 11:50:32;;;;;;;42.08;16.87;;;;;;;2.84;100.00;99301.72;4430996;32;20129;-75
2022/11/29 11:53:28;;;;;;;39.03;17.12;;;;;;;2.76;100.00;99299.50;4446586;32;20113;-77
2022/11/29 11:56:03;;;;;;;37.80;15.80;;;;;;;2.70;100.00;99298.97;4434134;32;20151;-75
2022/11/29 11:58:30;;;;;;;;;;;;;;;2.57;100.00;99304.72;4435862;32;20088;-73